createdAt,value
2018-06-18T00:00:34.029Z,4.00
2018-06-18T00:03:02.467Z,4.73
2018-06-18T00:05:30.947Z,4.60
2018-06-18T00:07:59.385Z,4.73
2018-06-18T00:10:27.805Z,4.50
2018-06-18T00:12:56.575Z,4.47
2018-06-18T00:15:25.396Z,4.17
2018-06-18T00:17:53.852Z,4.60
2018-06-18T00:20:22.347Z,4.27
2018-06-18T00:22:50.752Z,4.87
2018-06-18T00:25:19.237Z,5.20
2018-06-18T00:27:47.732Z,4.60
2018-06-18T00:30:16.162Z,4.37
2018-06-18T00:32:44.613Z,4.60
2018-06-18T00:35:13.211Z,4.90
2018-06-18T00:37:41.744Z,4.20
2018-06-18T00:40:10.705Z,4.50
2018-06-18T00:42:39.219Z,4.60
2018-06-18T00:45:07.626Z,4.77
2018-06-18T00:47:36.045Z,4.47
2018-06-18T00:50:04.663Z,5.10
2018-06-18T00:52:33.656Z,3.70
2018-06-18T00:55:02.771Z,4.83
2018-06-18T00:57:31.215Z,4.33
2018-06-18T00:59:59.668Z,5.10
2018-06-18T01:02:28.177Z,4.70
2018-06-18T01:04:56.588Z,4.40
2018-06-18T01:07:25.740Z,5.30
2018-06-18T01:09:54.684Z,4.70
2018-06-18T01:12:23.183Z,5.00
2018-06-18T01:14:51.894Z,4.73
2018-06-18T01:17:20.352Z,5.10
2018-06-18T01:19:49.438Z,5.47
2018-06-18T01:22:17.922Z,4.80
2018-06-18T01:24:54.345Z,5.23
2018-06-18T01:27:22.751Z,5.03
2018-06-18T01:29:51.193Z,4.80
2018-06-18T01:32:19.609Z,5.03
2018-06-18T01:34:48.125Z,5.07
2018-06-18T01:37:17.284Z,4.70
2018-06-18T01:39:45.817Z,5.20
2018-06-18T01:42:14.465Z,5.60
2018-06-18T01:44:43.600Z,5.20
2018-06-18T01:47:12.040Z,4.70
2018-06-18T01:49:40.584Z,5.20
2018-06-18T01:52:09.021Z,5.10
2018-06-18T01:54:37.550Z,5.13
2018-06-18T01:57:06.134Z,5.00
2018-06-18T01:59:34.739Z,5.10
2018-06-18T02:02:03.261Z,5.20
2018-06-18T02:04:31.711Z,5.33
2018-06-18T02:07:00.255Z,4.50
2018-06-18T02:09:29.333Z,5.43
2018-06-18T02:11:57.803Z,4.60
2018-06-18T02:14:26.247Z,5.50
2018-06-18T02:16:55.006Z,5.40
2018-06-18T02:19:23.401Z,4.90
2018-06-18T02:21:51.923Z,5.23
2018-06-18T02:24:20.534Z,4.77
2018-06-18T02:26:53.271Z,5.67
2018-06-18T02:29:26.856Z,5.13
2018-06-18T02:32:00.705Z,5.47
2018-06-18T02:35:33.071Z,4.93
2018-06-18T02:38:06.795Z,5.23
2018-06-18T02:40:40.626Z,5.20
2018-06-18T02:43:09.212Z,5.50
2018-06-18T02:45:37.758Z,4.60
2018-06-18T02:48:06.434Z,4.80
2018-06-18T02:50:34.866Z,5.00
2018-06-18T02:53:03.380Z,4.90
2018-06-18T02:55:31.863Z,4.83
2018-06-18T02:58:00.320Z,5.10
2018-06-18T03:00:28.825Z,4.83
2018-06-18T03:02:57.262Z,5.10
2018-06-18T03:05:25.722Z,4.70
2018-06-18T03:07:54.175Z,5.00
2018-06-18T03:10:22.826Z,5.20
2018-06-18T03:12:51.334Z,5.37
2018-06-18T03:15:19.859Z,4.50
2018-06-18T03:17:48.434Z,4.97
2018-06-18T03:20:22.211Z,5.17
2018-06-18T03:22:55.736Z,5.07
2018-06-18T03:25:29.926Z,5.50
2018-06-18T03:28:04.634Z,4.87
2018-06-18T03:30:33.960Z,5.43
2018-06-18T03:33:02.358Z,5.07
2018-06-18T03:35:30.910Z,5.10
2018-06-18T03:38:00.260Z,4.93
2018-06-18T03:40:28.678Z,5.40
2018-06-18T03:42:57.283Z,5.70
2018-06-18T03:45:33.497Z,4.73
2018-06-18T03:48:06.553Z,5.03
2018-06-18T03:50:35.461Z,4.93
2018-06-18T03:53:03.939Z,4.80
2018-06-18T03:55:44.842Z,4.63
2018-06-18T03:58:13.285Z,5.60
2018-06-18T04:00:52.788Z,5.33
2018-06-18T04:04:28.332Z,5.20
2018-06-18T04:07:02.164Z,5.23
2018-06-18T04:10:36.452Z,5.23
2018-06-18T04:13:05.670Z,5.07
2018-06-18T04:15:34.172Z,5.40
2018-06-18T04:18:02.686Z,5.33
2018-06-18T04:20:34.828Z,5.20
2018-06-18T04:23:03.404Z,5.50
2018-06-18T04:25:31.817Z,4.90
2018-06-18T04:28:00.302Z,5.30
2018-06-18T04:30:28.771Z,5.20
2018-06-18T04:32:57.802Z,5.30
2018-06-18T04:35:26.342Z,5.90
2018-06-18T04:37:54.827Z,5.47
2018-06-18T04:40:24.076Z,5.00
2018-06-18T04:42:57.745Z,5.40
2018-06-18T04:45:31.464Z,4.80
2018-06-18T04:48:05.372Z,4.80
2018-06-18T04:50:39.018Z,5.07
2018-06-18T04:53:07.506Z,5.50
2018-06-18T04:55:35.960Z,4.80
2018-06-18T04:58:04.452Z,5.03
2018-06-18T05:00:50.667Z,5.17
2018-06-18T05:03:19.293Z,4.47
2018-06-18T05:05:47.874Z,4.37
2018-06-18T05:10:29.328Z,4.50
2018-06-18T05:12:58.042Z,3.90
2018-06-18T05:15:42.288Z,4.30
2018-06-18T05:18:10.744Z,4.67
2018-06-18T05:20:39.323Z,5.23
2018-06-18T05:23:11.935Z,4.20
2018-06-18T05:25:40.689Z,4.90
2018-06-18T05:28:09.130Z,4.40
2018-06-18T05:30:37.691Z,4.40
2018-06-18T05:33:06.113Z,3.97
2018-06-18T05:35:35.170Z,3.97
2018-06-18T05:38:12.668Z,3.90
2018-06-18T05:40:41.247Z,3.70
2018-06-18T05:43:10.269Z,3.80
2018-06-18T05:45:38.707Z,4.23
2018-06-18T05:48:07.174Z,3.73
2018-06-18T05:50:35.693Z,3.70
2018-06-18T05:53:04.363Z,3.83
2018-06-18T05:55:32.889Z,3.50
2018-06-18T05:58:01.733Z,3.70
2018-06-18T06:00:30.252Z,3.57
2018-06-18T06:02:58.685Z,3.50
2018-06-18T06:05:27.149Z,3.90
2018-06-18T06:07:55.680Z,3.20
2018-06-18T06:10:24.416Z,3.70
2018-06-18T06:12:53.922Z,3.03
2018-06-18T06:15:22.478Z,4.27
2018-06-18T06:17:50.968Z,3.90
2018-06-18T06:20:19.580Z,3.30
2018-06-18T06:22:48.028Z,3.70
2018-06-18T06:25:16.568Z,3.60
2018-06-18T06:27:45.253Z,3.87
2018-06-18T06:30:13.847Z,3.57
2018-06-18T06:32:42.423Z,3.50
2018-06-18T06:35:19.446Z,3.70
2018-06-18T06:37:48.998Z,4.17
2018-06-18T06:40:17.491Z,3.70
2018-06-18T06:42:45.962Z,3.63
2018-06-18T06:45:14.612Z,3.93
2018-06-18T06:47:43.180Z,3.37
2018-06-18T06:50:11.597Z,4.10
2018-06-18T06:52:40.075Z,4.43
2018-06-18T06:55:08.555Z,3.47
2018-06-18T06:57:37.040Z,3.50
2018-06-18T07:00:05.979Z,3.70
2018-06-18T07:02:34.598Z,3.70
2018-06-18T07:05:03.692Z,3.50
2018-06-18T07:07:32.274Z,3.67
2018-06-18T07:10:01.588Z,3.60
2018-06-18T07:12:30.391Z,3.67
2018-06-18T07:14:59.955Z,3.50
2018-06-18T07:17:28.590Z,3.73
2018-06-18T07:19:56.997Z,3.70
2018-06-18T07:22:26.236Z,3.90
2018-06-18T07:24:55.457Z,4.33
2018-06-18T07:27:23.948Z,3.60
2018-06-18T07:29:52.454Z,3.40
2018-06-18T07:32:21.015Z,3.73
2018-06-18T07:34:49.585Z,3.77
2018-06-18T07:37:18.046Z,3.37
2018-06-18T07:39:47.267Z,3.60
2018-06-18T07:42:16.070Z,4.17
2018-06-18T07:44:45.252Z,3.20
2018-06-18T07:47:14.027Z,3.90
2018-06-18T07:49:42.841Z,3.90
2018-06-18T07:52:11.895Z,4.00
2018-06-18T07:54:40.525Z,4.13
2018-06-18T07:57:09.422Z,3.70
2018-06-18T07:59:38.007Z,3.37
2018-06-18T08:02:06.842Z,4.37
2018-06-18T08:04:35.573Z,3.90
2018-06-18T08:07:04.130Z,3.73
2018-06-18T08:09:38.978Z,3.87
2018-06-18T08:12:07.706Z,3.73
2018-06-18T08:14:36.342Z,3.60
2018-06-18T08:17:04.947Z,4.43
2018-06-18T08:19:33.366Z,3.77
2018-06-18T08:22:02.015Z,4.00
2018-06-18T08:24:30.502Z,4.00
2018-06-18T08:26:59.068Z,3.90
2018-06-18T08:29:27.642Z,3.70
2018-06-18T08:31:56.144Z,4.30
2018-06-18T08:34:25.301Z,4.17
2018-06-18T08:36:53.818Z,4.10
2018-06-18T08:39:22.296Z,3.87
2018-06-18T08:41:51.610Z,3.90
2018-06-18T08:44:20.070Z,3.47
2018-06-18T08:46:48.597Z,3.20
2018-06-18T08:49:17.146Z,3.50
2018-06-18T08:51:50.867Z,3.30
2018-06-18T08:54:24.508Z,3.70
2018-06-18T08:56:58.208Z,3.93
2018-06-18T08:59:32.213Z,3.53
2018-06-18T09:02:00.751Z,3.63
2018-06-18T09:04:34.617Z,3.60
2018-06-18T09:07:07.491Z,4.00
2018-06-18T09:09:36.175Z,3.33
2018-06-18T09:12:05.443Z,4.03
2018-06-18T09:14:33.970Z,3.50
2018-06-18T09:17:02.731Z,3.20
2018-06-18T09:19:31.332Z,3.30
2018-06-18T09:21:59.981Z,3.20
2018-06-18T09:24:33.760Z,4.03
2018-06-18T09:27:07.772Z,4.40
2018-06-18T09:29:36.868Z,4.17
2018-06-18T09:32:20.065Z,3.90
2018-06-18T09:34:48.497Z,3.77
2018-06-18T09:37:16.987Z,4.30
2018-06-18T09:39:45.526Z,3.67
2018-06-18T09:42:13.992Z,3.87
2018-06-18T09:44:42.435Z,3.77
2018-06-18T09:47:11.007Z,3.90
2018-06-18T09:49:45.369Z,3.50
2018-06-18T09:52:19.094Z,3.43
2018-06-18T09:54:52.870Z,4.10
2018-06-18T09:57:27.403Z,3.50
2018-06-18T09:59:59.294Z,3.70
2018-06-18T10:02:28.697Z,3.50
2018-06-18T10:04:58.635Z,3.70
2018-06-18T10:07:27.142Z,4.00
2018-06-18T10:09:56.197Z,3.50
2018-06-18T10:12:24.911Z,3.40
2018-06-18T10:14:53.513Z,3.90
2018-06-18T10:17:22.145Z,3.67
2018-06-18T10:19:51.762Z,3.20
2018-06-18T10:22:20.260Z,3.90
2018-06-18T10:24:48.784Z,3.80
2018-06-18T10:27:18.809Z,3.10
2018-06-18T10:29:47.764Z,3.30
2018-06-18T10:32:21.569Z,3.20
2018-06-18T10:34:55.180Z,3.60
2018-06-18T10:37:29.423Z,3.57
2018-06-18T10:40:03.397Z,3.60
2018-06-18T10:42:37.191Z,3.47
2018-06-18T10:45:05.745Z,3.57
2018-06-18T10:47:34.266Z,3.70
2018-06-18T10:50:03.803Z,3.50
2018-06-18T10:52:32.336Z,3.33
2018-06-18T10:55:00.917Z,3.60
2018-06-18T10:57:29.551Z,3.57
2018-06-18T10:59:58.467Z,3.83
2018-06-18T11:02:27.566Z,3.30
2018-06-18T11:05:02.119Z,3.37
2018-06-18T11:07:37.468Z,3.10
2018-06-18T11:10:06.045Z,3.47
2018-06-18T11:12:34.631Z,3.10
2018-06-18T11:15:03.187Z,3.20
2018-06-18T11:17:37.623Z,2.90
2018-06-18T11:20:11.406Z,2.90
2018-06-18T11:22:45.160Z,3.43
2018-06-18T11:25:19.107Z,3.47
2018-06-18T11:27:48.838Z,3.07
2018-06-18T11:30:17.237Z,3.07
2018-06-18T11:32:45.738Z,3.37
2018-06-18T11:35:14.494Z,3.50
2018-06-18T11:37:43.116Z,3.30
2018-06-18T11:40:11.905Z,3.20
2018-06-18T11:42:41.114Z,3.30
2018-06-18T11:45:09.589Z,3.20
2018-06-18T11:47:38.057Z,3.00
2018-06-18T11:50:06.669Z,2.87
2018-06-18T11:52:35.336Z,2.83
2018-06-18T11:55:03.873Z,3.00
2018-06-18T11:57:32.354Z,2.90
2018-06-18T12:00:06.183Z,3.23
2018-06-18T12:02:39.997Z,3.20
2018-06-18T12:05:13.674Z,2.90
2018-06-18T12:07:47.428Z,2.60
2018-06-18T12:10:16.389Z,3.17
2018-06-18T12:12:44.848Z,3.40
2018-06-18T12:15:13.793Z,2.80
2018-06-18T12:17:42.607Z,2.70
2018-06-18T12:20:11.226Z,2.67
2018-06-18T12:22:40.364Z,2.97
2018-06-18T12:25:08.965Z,3.20
2018-06-18T12:27:37.584Z,3.40
2018-06-18T12:30:06.052Z,3.10
2018-06-18T12:32:35.217Z,3.07
2018-06-18T12:35:03.829Z,2.83
2018-06-18T12:37:32.618Z,2.90
2018-06-18T12:40:01.345Z,3.43
2018-06-18T12:42:29.893Z,3.20
2018-06-18T12:45:03.515Z,3.03
2018-06-18T12:47:37.613Z,3.10
2018-06-18T12:50:11.614Z,2.77
2018-06-18T12:52:49.541Z,3.50
2018-06-18T12:55:23.457Z,2.60
2018-06-18T12:57:51.940Z,2.80
2018-06-18T13:00:20.462Z,3.07
2018-06-18T13:02:52.463Z,2.80
2018-06-18T13:05:21.179Z,2.90
2018-06-18T13:07:49.771Z,3.20
2018-06-18T13:10:18.289Z,3.60
2018-06-18T13:12:46.891Z,2.90
2018-06-18T13:15:15.795Z,3.53
2018-06-18T13:17:44.342Z,2.60
2018-06-18T13:20:12.845Z,2.97
2018-06-18T13:22:41.351Z,2.87
2018-06-18T13:25:10.914Z,2.73
2018-06-18T13:27:44.487Z,2.60
2018-06-18T13:30:13.459Z,2.67
2018-06-18T13:32:41.916Z,2.50
2018-06-18T13:35:10.414Z,3.33
2018-06-18T13:37:44.419Z,2.97
2018-06-18T13:40:18.234Z,2.77
2018-06-18T13:42:51.923Z,2.70
2018-06-18T13:45:25.565Z,2.90
2018-06-18T13:47:59.707Z,2.77
2018-06-18T13:50:28.963Z,2.73
2018-06-18T13:52:57.432Z,2.93
2018-06-18T13:55:26.544Z,2.93
2018-06-18T13:57:55.090Z,2.87
2018-06-18T14:00:23.635Z,3.00
2018-06-18T14:02:52.152Z,3.50
2018-06-18T14:05:21.074Z,3.20
2018-06-18T14:07:49.975Z,2.50
2018-06-18T14:10:18.497Z,3.03
2018-06-18T14:12:47.649Z,2.93
2018-06-18T14:15:16.199Z,3.03
2018-06-18T14:17:44.649Z,2.70
2018-06-18T14:20:18.499Z,3.17
2018-06-18T14:22:46.964Z,3.07
2018-06-18T14:25:15.628Z,3.13
2018-06-18T14:27:44.205Z,3.30
2018-06-18T14:30:17.885Z,5.90
2018-06-18T14:32:51.596Z,3.50
2018-06-18T14:35:25.647Z,3.33
2018-06-18T14:37:59.834Z,3.80
2018-06-18T14:40:28.496Z,4.57
2018-06-18T14:42:56.992Z,3.73
2018-06-18T14:45:25.424Z,3.60
2018-06-18T14:47:53.893Z,3.50
2018-06-18T14:50:22.417Z,3.50
2018-06-18T14:52:50.873Z,3.67
2018-06-18T14:55:19.493Z,2.80
2018-06-18T14:57:48.059Z,3.03
2018-06-18T15:00:22.996Z,4.60
2018-06-18T15:02:53.063Z,3.50
2018-06-18T15:05:23.378Z,3.70
2018-06-18T15:07:53.145Z,7.27
2018-06-18T15:10:27.046Z,5.30
2018-06-18T15:12:57.250Z,5.27
2018-06-18T15:15:32.902Z,5.40
2018-06-18T15:18:03.097Z,4.37
2018-06-18T15:20:32.773Z,3.93
2018-06-18T15:23:04.305Z,4.20
2018-06-18T15:25:50.453Z,4.17
2018-06-18T15:28:18.880Z,4.03
2018-06-18T15:30:49.515Z,3.50
2018-06-18T15:33:19.294Z,3.07
2018-06-18T15:35:48.180Z,3.40
2018-06-18T15:38:17.144Z,3.60
2018-06-18T15:40:46.376Z,3.80
2018-06-18T15:43:14.870Z,3.47
2018-06-18T15:45:43.377Z,3.90
2018-06-18T15:48:11.882Z,3.90
2018-06-18T15:50:40.409Z,4.00
2018-06-18T15:53:08.926Z,4.30
2018-06-18T15:55:37.707Z,4.00
2018-06-18T15:58:06.251Z,4.60
2018-06-18T16:00:34.781Z,3.83
2018-06-18T16:03:03.574Z,3.87
2018-06-18T16:05:32.102Z,3.70
2018-06-18T16:08:00.598Z,4.00
2018-06-18T16:10:29.060Z,3.47
2018-06-18T16:12:57.520Z,3.57
2018-06-18T16:15:26.084Z,3.47
2018-06-18T16:17:54.666Z,3.37
2018-06-18T16:20:23.137Z,4.20
2018-06-18T16:22:51.641Z,3.30
2018-06-18T16:25:20.102Z,3.80
2018-06-18T16:27:49.180Z,3.67
2018-06-18T16:30:17.780Z,3.60
2018-06-18T16:32:46.668Z,3.30
2018-06-18T16:35:15.177Z,3.60
2018-06-18T16:37:44.665Z,3.37
2018-06-18T16:40:13.373Z,4.10
2018-06-18T16:42:42.213Z,3.97
2018-06-18T16:45:11.328Z,3.73
2018-06-18T16:47:39.852Z,3.90
2018-06-18T16:50:08.371Z,3.80
2018-06-18T16:52:36.956Z,4.13
2018-06-18T16:55:05.579Z,3.80
2018-06-18T16:57:34.603Z,3.37
2018-06-18T17:00:03.444Z,3.50
2018-06-18T17:02:32.134Z,3.47
2018-06-18T17:05:00.776Z,3.43
2018-06-18T17:07:30.143Z,3.57
2018-06-18T17:10:11.558Z,3.53
2018-06-18T17:12:40.283Z,3.50
2018-06-18T17:15:10.409Z,3.83
2018-06-18T17:17:39.942Z,3.50
2018-06-18T17:20:09.508Z,3.40
2018-06-18T17:22:38.678Z,3.40
2018-06-18T17:25:07.423Z,4.37
2018-06-18T17:27:36.847Z,3.77
2018-06-18T17:30:05.701Z,4.03
2018-06-18T17:32:35.034Z,3.40
2018-06-18T17:35:04.993Z,3.87
2018-06-18T17:37:35.671Z,3.87
2018-06-18T17:40:05.125Z,4.53
2018-06-18T17:42:33.656Z,3.97
2018-06-18T17:45:02.209Z,3.90
2018-06-18T17:47:31.343Z,4.80
2018-06-18T17:50:00.239Z,6.70
2018-06-18T17:52:34.860Z,4.70
2018-06-18T17:55:04.514Z,4.10
2018-06-18T17:57:33.207Z,4.50
2018-06-18T18:00:02.958Z,5.40
2018-06-18T18:02:31.723Z,4.20
2018-06-18T18:05:00.579Z,3.60
2018-06-18T18:07:29.781Z,3.50
2018-06-18T18:09:59.161Z,3.40
2018-06-18T18:12:27.760Z,4.43
2018-06-18T18:14:56.392Z,3.70
2018-06-18T18:17:24.927Z,4.83
2018-06-18T18:19:53.480Z,4.10
2018-06-18T18:22:22.414Z,5.20
2018-06-18T18:24:51.033Z,4.37
2018-06-18T18:27:19.796Z,4.20
2018-06-18T18:29:48.327Z,4.07
2018-06-18T18:32:19.222Z,3.80
2018-06-18T18:34:51.870Z,3.80
2018-06-18T18:37:20.416Z,3.53
2018-06-18T18:39:49.608Z,3.70
2018-06-18T18:42:18.204Z,4.00
2018-06-18T18:44:46.776Z,3.73
2018-06-18T18:47:15.321Z,3.43
2018-06-18T18:49:43.814Z,3.80
2018-06-18T18:52:12.433Z,3.87
2018-06-18T18:55:55.338Z,3.93
2018-06-18T18:58:49.626Z,3.90
2018-06-18T19:01:19.998Z,3.43
2018-06-18T19:03:50.128Z,4.03
2018-06-18T19:06:18.847Z,3.80
2018-06-18T19:08:47.448Z,3.57
2018-06-18T19:11:16.843Z,3.50
2018-06-18T19:13:45.430Z,4.37
2018-06-18T19:16:14.350Z,4.10
2018-06-18T19:18:46.569Z,3.63
2018-06-18T19:21:15.186Z,4.00
2018-06-18T19:23:43.779Z,3.80
2018-06-18T19:26:12.391Z,4.13
2018-06-18T19:28:40.972Z,3.83
2018-06-18T19:31:12.952Z,4.27
2018-06-18T19:34:20.866Z,3.77
2018-06-18T19:36:51.547Z,4.27
2018-06-18T19:39:20.545Z,4.10
2018-06-18T19:41:49.535Z,4.13
2018-06-18T19:44:18.118Z,4.17
2018-06-18T19:46:57.260Z,4.23
2018-06-18T19:49:26.711Z,4.70
2018-06-18T19:51:55.240Z,4.53
2018-06-18T19:54:26.230Z,4.27
2018-06-18T19:56:54.732Z,4.27
2018-06-18T19:59:23.559Z,3.87
2018-06-18T20:01:52.044Z,4.17
2018-06-18T20:04:20.597Z,5.20
2018-06-18T20:06:50.007Z,4.33
2018-06-18T20:09:18.483Z,4.60
2018-06-18T20:11:48.320Z,4.10
2018-06-18T20:14:16.824Z,5.30
2018-06-18T20:16:45.305Z,7.50
2018-06-18T20:19:20.763Z,7.40
2018-06-18T20:21:49.415Z,5.70
2018-06-18T20:24:17.924Z,5.17
2018-06-18T20:26:46.410Z,5.40
2018-06-18T20:29:14.926Z,5.07
2018-06-18T20:31:44.202Z,4.73
2018-06-18T20:34:12.798Z,4.57
2018-06-18T20:36:41.744Z,4.90
2018-06-18T20:39:12.291Z,4.77
2018-06-18T20:41:40.885Z,5.80
2018-06-18T20:44:15.407Z,6.03
2018-06-18T20:46:44.072Z,6.57
2018-06-18T20:49:13.961Z,6.47
2018-06-18T20:51:42.504Z,4.80
2018-06-18T20:54:11.965Z,4.97
2018-06-18T20:56:40.476Z,5.20
2018-06-18T20:59:10.423Z,5.50
2018-06-18T21:01:39.318Z,5.37
2018-06-18T21:04:08.069Z,7.10
2018-06-18T21:06:36.687Z,7.03
2018-06-18T21:09:08.291Z,5.30
2018-06-18T21:11:36.929Z,4.83
2018-06-18T21:14:05.819Z,6.20
2018-06-18T21:16:34.504Z,6.73
2018-06-18T21:19:03.107Z,6.70
2018-06-18T21:21:31.542Z,8.53
2018-06-18T21:24:00.327Z,8.03
2018-06-18T21:26:29.563Z,6.00
2018-06-18T21:28:58.498Z,8.03
2018-06-18T21:31:28.048Z,7.80
2018-06-18T21:33:56.517Z,8.27
2018-06-18T21:36:25.118Z,8.70
2018-06-18T21:38:53.651Z,13.27
2018-06-18T21:41:22.237Z,13.00
2018-06-18T21:43:51.242Z,9.30
2018-06-18T21:46:19.699Z,6.60
2018-06-18T21:48:48.780Z,6.20
2018-06-18T21:51:17.541Z,5.87
2018-06-18T21:53:45.988Z,7.10
2018-06-18T21:56:14.493Z,6.30
2018-06-18T21:58:43.072Z,6.03
2018-06-18T22:01:11.575Z,6.10
2018-06-18T22:03:40.488Z,6.00
2018-06-18T22:06:09.284Z,6.13
2018-06-18T22:08:37.848Z,6.33
2018-06-18T22:11:06.454Z,6.00
2018-06-18T22:13:35.786Z,5.90
2018-06-18T22:16:04.671Z,6.13
2018-06-18T22:18:33.110Z,6.17
2018-06-18T22:21:01.805Z,6.13
2018-06-18T22:23:30.715Z,5.60
2018-06-18T22:26:00.080Z,5.90
2018-06-18T22:28:35.945Z,6.90
2018-06-18T22:31:05.054Z,6.07
2018-06-18T22:33:34.000Z,6.50
2018-06-18T22:36:02.493Z,5.70
2018-06-18T22:38:32.147Z,6.37
2018-06-18T22:41:01.313Z,6.00
2018-06-18T22:43:30.114Z,5.50
2018-06-18T22:45:58.604Z,5.80
2018-06-18T22:48:27.135Z,5.90
2018-06-18T22:50:55.747Z,5.90
2018-06-18T22:53:24.247Z,5.60
2018-06-18T22:55:52.904Z,5.80
2018-06-18T22:58:22.596Z,5.80
2018-06-18T23:00:53.790Z,6.20
2018-06-18T23:03:22.424Z,5.70
2018-06-18T23:05:50.906Z,5.40
2018-06-18T23:08:20.762Z,5.43
2018-06-18T23:10:50.017Z,5.63
2018-06-18T23:13:21.343Z,5.90
2018-06-18T23:15:50.038Z,5.80
2018-06-18T23:18:18.476Z,5.37
2018-06-18T23:20:47.060Z,6.17
2018-06-18T23:23:15.603Z,5.67
2018-06-18T23:25:44.067Z,5.60
2018-06-18T23:28:12.861Z,5.87
2018-06-18T23:30:41.423Z,5.23
2018-06-18T23:33:10.056Z,5.47
2018-06-18T23:35:38.553Z,5.60
2018-06-18T23:38:07.346Z,5.40
2018-06-18T23:40:35.844Z,6.00
2018-06-18T23:43:04.367Z,5.97
2018-06-18T23:45:33.086Z,5.43
2018-06-18T23:48:02.158Z,6.50
2018-06-18T23:50:30.725Z,5.37
2018-06-18T23:52:59.534Z,5.33
2018-06-18T23:55:28.208Z,5.50
2018-06-18T23:57:56.635Z,5.80
